sensor_id;sensor_type;location;lat;lon;timestamp;P1;P2;P0
56495;PMS5003;42804;55.762;38.084;2023-04-24T00:00:32;47.60;39.00;26.00
56495;PMS5003;42804;55.762;38.084;2023-04-24T00:03:00;42.20;37.80;26.00
56495;PMS5003;42804;55.762;38.084;2023-04-24T00:05:29;43.40;39.40;26.80
56495;PMS5003;42804;55.762;38.084;2023-04-24T00:07:57;46.20;38.80;26.00
56495;PMS5003;42804;55.762;38.084;2023-04-24T00:10:28;34.20;31.20;21.00
56495;PMS5003;42804;55.762;38.084;2023-04-24T00:12:56;41.80;38.60;27.20
56495;PMS5003;42804;55.762;38.084;2023-04-24T00:15:24;42.20;38.40;27.40
56495;PMS5003;42804;55.762;38.084;2023-04-24T00:17:52;41.20;36.00;26.00
56495;PMS5003;42804;55.762;38.084;2023-04-24T00:20:20;42.20;36.60;25.40
56495;PMS5003;42804;55.762;38.084;2023-04-24T00:22:49;35.20;33.00;25.80
56495;PMS5003;42804;55.762;38.084;2023-04-24T00:25:17;43.60;37.60;26.00
56495;PMS5003;42804;55.762;38.084;2023-04-24T00:27:47;40.00;37.80;26.40
56495;PMS5003;42804;55.762;38.084;2023-04-24T00:30:15;42.80;36.60;26.60
56495;PMS5003;42804;55.762;38.084;2023-04-24T00:32:43;41.20;35.40;25.60
56495;PMS5003;42804;55.762;38.084;2023-04-24T00:35:11;36.40;34.40;26.00
56495;PMS5003;42804;55.762;38.084;2023-04-24T00:37:39;40.00;37.60;27.00
56495;PMS5003;42804;55.762;38.084;2023-04-24T00:40:08;42.40;35.20;26.80
56495;PMS5003;42804;55.762;38.084;2023-04-24T00:42:36;40.20;37.40;26.80
56495;PMS5003;42804;55.762;38.084;2023-04-24T00:45:07;39.60;29.40;20.20
56495;PMS5003;42804;55.762;38.084;2023-04-24T00:47:35;40.80;35.80;26.00
56495;PMS5003;42804;55.762;38.084;2023-04-24T00:50:04;38.20;36.40;24.00
56495;PMS5003;42804;55.762;38.084;2023-04-24T00:52:33;36.60;33.40;22.40
56495;PMS5003;42804;55.762;38.084;2023-04-24T00:55:01;45.00;36.40;25.60
56495;PMS5003;42804;55.762;38.084;2023-04-24T00:57:30;27.40;24.40;14.40
56495;PMS5003;42804;55.762;38.084;2023-04-24T00:59:58;38.40;33.80;24.80
56495;PMS5003;42804;55.762;38.084;2023-04-24T01:02:27;33.40;30.60;22.00
56495;PMS5003;42804;55.762;38.084;2023-04-24T01:04:56;32.80;30.20;19.60
56495;PMS5003;42804;55.762;38.084;2023-04-24T01:07:25;37.80;34.20;24.40
56495;PMS5003;42804;55.762;38.084;2023-04-24T01:09:53;45.60;38.80;26.80
56495;PMS5003;42804;55.762;38.084;2023-04-24T01:12:21;40.40;36.60;24.00
56495;PMS5003;42804;55.762;38.084;2023-04-24T01:14:49;43.20;37.00;26.00
56495;PMS5003;42804;55.762;38.084;2023-04-24T01:17:17;44.20;33.80;22.40
56495;PMS5003;42804;55.762;38.084;2023-04-24T01:19:48;43.00;39.00;26.00
56495;PMS5003;42804;55.762;38.084;2023-04-24T01:22:17;37.40;31.40;22.20
56495;PMS5003;42804;55.762;38.084;2023-04-24T01:24:45;40.60;36.00;25.20
56495;PMS5003;42804;55.762;38.084;2023-04-24T01:27:14;47.00;40.20;27.80
56495;PMS5003;42804;55.762;38.084;2023-04-24T01:29:44;49.00;40.00;28.00
56495;PMS5003;42804;55.762;38.084;2023-04-24T01:32:14;38.20;34.40;21.60
56495;PMS5003;42804;55.762;38.084;2023-04-24T01:34:42;49.60;40.80;27.20
56495;PMS5003;42804;55.762;38.084;2023-04-24T01:37:10;46.40;41.40;27.20
56495;PMS5003;42804;55.762;38.084;2023-04-24T01:39:40;47.60;40.40;26.20
56495;PMS5003;42804;55.762;38.084;2023-04-24T01:42:08;45.00;39.20;27.00
56495;PMS5003;42804;55.762;38.084;2023-04-24T01:44:37;36.20;35.80;24.00
56495;PMS5003;42804;55.762;38.084;2023-04-24T01:47:05;48.80;42.80;26.40
56495;PMS5003;42804;55.762;38.084;2023-04-24T01:49:33;56.40;43.00;28.40
56495;PMS5003;42804;55.762;38.084;2023-04-24T01:52:04;39.00;34.40;25.00
56495;PMS5003;42804;55.762;38.084;2023-04-24T01:54:32;47.00;41.60;28.60
56495;PMS5003;42804;55.762;38.084;2023-04-24T01:57:02;50.60;40.20;30.00
56495;PMS5003;42804;55.762;38.084;2023-04-24T01:59:31;51.80;43.40;27.40
56495;PMS5003;42804;55.762;38.084;2023-04-24T02:02:01;46.20;42.00;26.00
56495;PMS5003;42804;55.762;38.084;2023-04-24T02:04:29;37.40;34.80;25.00
56495;PMS5003;42804;55.762;38.084;2023-04-24T02:06:57;45.20;41.40;28.00
56495;PMS5003;42804;55.762;38.084;2023-04-24T02:09:25;48.40;42.40;28.60
56495;PMS5003;42804;55.762;38.084;2023-04-24T02:11:53;42.60;34.40;25.00
56495;PMS5003;42804;55.762;38.084;2023-04-24T02:14:23;50.40;41.80;28.20
56495;PMS5003;42804;55.762;38.084;2023-04-24T02:16:51;54.40;42.60;28.60
56495;PMS5003;42804;55.762;38.084;2023-04-24T02:19:20;53.40;43.60;28.60
56495;PMS5003;42804;55.762;38.084;2023-04-24T02:21:49;46.00;40.00;26.20
56495;PMS5003;42804;55.762;38.084;2023-04-24T02:24:18;49.00;42.60;28.60
56495;PMS5003;42804;55.762;38.084;2023-04-24T02:26:46;44.60;40.40;27.40
56495;PMS5003;42804;55.762;38.084;2023-04-24T02:29:14;45.00;40.20;28.20
56495;PMS5003;42804;55.762;38.084;2023-04-24T02:31:43;48.00;41.60;27.20
56495;PMS5003;42804;55.762;38.084;2023-04-24T02:34:13;57.00;41.80;29.80
56495;PMS5003;42804;55.762;38.084;2023-04-24T02:36:42;50.20;42.00;27.40
56495;PMS5003;42804;55.762;38.084;2023-04-24T02:39:11;47.40;41.20;28.20
56495;PMS5003;42804;55.762;38.084;2023-04-24T02:41:40;48.80;38.60;27.60
56495;PMS5003;42804;55.762;38.084;2023-04-24T02:44:08;47.80;41.60;29.00
56495;PMS5003;42804;55.762;38.084;2023-04-24T02:46:36;50.00;41.00;26.40
56495;PMS5003;42804;55.762;38.084;2023-04-24T02:49:06;42.60;35.20;27.00
56495;PMS5003;42804;55.762;38.084;2023-04-24T02:51:34;46.00;42.60;29.60
56495;PMS5003;42804;55.762;38.084;2023-04-24T02:54:04;39.80;35.60;26.00
56495;PMS5003;42804;55.762;38.084;2023-04-24T02:56:32;40.20;38.20;29.40
56495;PMS5003;42804;55.762;38.084;2023-04-24T02:59:01;42.20;39.20;26.00
56495;PMS5003;42804;55.762;38.084;2023-04-24T03:01:30;54.40;42.60;28.80
56495;PMS5003;42804;55.762;38.084;2023-04-24T03:03:58;41.60;39.40;27.00
56495;PMS5003;42804;55.762;38.084;2023-04-24T03:06:28;44.00;38.20;24.00
56495;PMS5003;42804;55.762;38.084;2023-04-24T03:08:58;48.00;38.20;26.60
56495;PMS5003;42804;55.762;38.084;2023-04-24T03:11:26;44.00;37.60;25.00
56495;PMS5003;42804;55.762;38.084;2023-04-24T03:13:54;49.60;39.80;25.80
56495;PMS5003;42804;55.762;38.084;2023-04-24T03:16:22;49.40;39.80;25.80
56495;PMS5003;42804;55.762;38.084;2023-04-24T03:18:51;39.40;37.20;26.00
56495;PMS5003;42804;55.762;38.084;2023-04-24T03:21:20;44.80;41.60;28.60
56495;PMS5003;42804;55.762;38.084;2023-04-24T03:23:49;44.60;35.20;24.00
56495;PMS5003;42804;55.762;38.084;2023-04-24T03:26:18;48.00;40.40;28.60
56495;PMS5003;42804;55.762;38.084;2023-04-24T03:29:00;40.25;36.50;23.00
56495;PMS5003;42804;55.762;38.084;2023-04-24T03:31:29;49.60;41.80;28.80
56495;PMS5003;42804;55.762;38.084;2023-04-24T03:33:57;45.60;40.00;26.00
56495;PMS5003;42804;55.762;38.084;2023-04-24T03:36:25;42.60;38.00;25.00
56495;PMS5003;42804;55.762;38.084;2023-04-24T03:38:56;43.40;37.20;25.60
56495;PMS5003;42804;55.762;38.084;2023-04-24T03:41:27;47.80;40.60;27.80
56495;PMS5003;42804;55.762;38.084;2023-04-24T03:44:23;51.20;42.80;28.80
56495;PMS5003;42804;55.762;38.084;2023-04-24T03:46:51;45.00;39.80;26.40
56495;PMS5003;42804;55.762;38.084;2023-04-24T03:49:21;44.60;39.00;26.80
56495;PMS5003;42804;55.762;38.084;2023-04-24T03:51:49;48.20;41.60;28.20
56495;PMS5003;42804;55.762;38.084;2023-04-24T03:54:23;50.00;41.40;28.60
56495;PMS5003;42804;55.762;38.084;2023-04-24T03:56:53;47.00;41.00;28.20
56495;PMS5003;42804;55.762;38.084;2023-04-24T03:59:22;46.80;40.80;29.40
56495;PMS5003;42804;55.762;38.084;2023-04-24T04:02:05;43.00;39.60;27.20
56495;PMS5003;42804;55.762;38.084;2023-04-24T04:04:34;46.60;40.80;27.60
56495;PMS5003;42804;55.762;38.084;2023-04-24T04:07:02;41.60;39.20;27.00
56495;PMS5003;42804;55.762;38.084;2023-04-24T04:09:33;46.80;41.00;29.20
56495;PMS5003;42804;55.762;38.084;2023-04-24T04:12:01;51.80;39.60;28.00
56495;PMS5003;42804;55.762;38.084;2023-04-24T04:14:31;50.80;40.20;27.80
56495;PMS5003;42804;55.762;38.084;2023-04-24T04:17:00;48.00;38.20;27.00
56495;PMS5003;42804;55.762;38.084;2023-04-24T04:19:28;51.60;41.00;28.00
56495;PMS5003;42804;55.762;38.084;2023-04-24T04:21:56;51.40;44.00;29.40
56495;PMS5003;42804;55.762;38.084;2023-04-24T04:24:39;49.60;43.00;29.00
56495;PMS5003;42804;55.762;38.084;2023-04-24T04:27:08;56.00;41.80;28.20
56495;PMS5003;42804;55.762;38.084;2023-04-24T04:29:57;49.20;41.00;28.00
56495;PMS5003;42804;55.762;38.084;2023-04-24T04:32:29;54.80;45.40;31.80
56495;PMS5003;42804;55.762;38.084;2023-04-24T04:34:58;51.00;41.80;28.80
56495;PMS5003;42804;55.762;38.084;2023-04-24T04:37:31;49.60;39.80;26.80
56495;PMS5003;42804;55.762;38.084;2023-04-24T04:40:27;53.40;43.80;29.60
56495;PMS5003;42804;55.762;38.084;2023-04-24T04:43:01;52.40;43.80;29.60
56495;PMS5003;42804;55.762;38.084;2023-04-24T04:45:37;46.80;40.40;28.40
56495;PMS5003;42804;55.762;38.084;2023-04-24T04:48:28;53.20;43.80;30.00
56495;PMS5003;42804;55.762;38.084;2023-04-24T04:51:01;52.00;42.40;29.20
56495;PMS5003;42804;55.762;38.084;2023-04-24T04:53:30;54.00;45.80;31.00
56495;PMS5003;42804;55.762;38.084;2023-04-24T04:55:59;50.20;40.00;28.00
56495;PMS5003;42804;55.762;38.084;2023-04-24T04:58:34;46.80;39.60;27.00
56495;PMS5003;42804;55.762;38.084;2023-04-24T05:01:04;37.00;35.00;26.60
56495;PMS5003;42804;55.762;38.084;2023-04-24T05:03:44;43.60;39.40;27.80
56495;PMS5003;42804;55.762;38.084;2023-04-24T05:06:15;50.20;41.80;27.60
56495;PMS5003;42804;55.762;38.084;2023-04-24T05:08:44;50.20;40.40;29.40
56495;PMS5003;42804;55.762;38.084;2023-04-24T05:11:31;49.40;42.80;28.20
56495;PMS5003;42804;55.762;38.084;2023-04-24T05:14:00;42.20;38.20;26.40
56495;PMS5003;42804;55.762;38.084;2023-04-24T05:16:37;54.20;40.60;25.80
56495;PMS5003;42804;55.762;38.084;2023-04-24T05:19:06;45.40;39.40;28.40
56495;PMS5003;42804;55.762;38.084;2023-04-24T05:21:38;44.40;39.80;28.00
56495;PMS5003;42804;55.762;38.084;2023-04-24T05:24:08;49.40;42.80;28.80
56495;PMS5003;42804;55.762;38.084;2023-04-24T05:26:56;53.60;43.80;29.40
56495;PMS5003;42804;55.762;38.084;2023-04-24T05:29:31;51.00;42.60;29.60
56495;PMS5003;42804;55.762;38.084;2023-04-24T05:32:00;48.40;42.00;29.00
56495;PMS5003;42804;55.762;38.084;2023-04-24T05:34:29;49.80;42.80;27.80
56495;PMS5003;42804;55.762;38.084;2023-04-24T05:36:58;50.40;43.40;29.00
56495;PMS5003;42804;55.762;38.084;2023-04-24T05:39:26;45.00;40.25;26.50
56495;PMS5003;42804;55.762;38.084;2023-04-24T05:41:54;54.00;44.00;30.60
56495;PMS5003;42804;55.762;38.084;2023-04-24T05:44:26;54.60;45.40;30.60
56495;PMS5003;42804;55.762;38.084;2023-04-24T05:46:54;49.80;42.60;30.00
56495;PMS5003;42804;55.762;38.084;2023-04-24T05:49:23;47.80;40.40;28.00
56495;PMS5003;42804;55.762;38.084;2023-04-24T05:51:52;49.60;40.20;27.80
56495;PMS5003;42804;55.762;38.084;2023-04-24T05:54:21;46.40;40.20;27.00
56495;PMS5003;42804;55.762;38.084;2023-04-24T05:56:49;46.25;39.25;26.25
56495;PMS5003;42804;55.762;38.084;2023-04-24T05:59:29;49.80;40.20;27.80
56495;PMS5003;42804;55.762;38.084;2023-04-24T06:01:57;40.50;37.25;25.00
56495;PMS5003;42804;55.762;38.084;2023-04-24T06:04:27;40.50;36.00;26.00
56495;PMS5003;42804;55.762;38.084;2023-04-24T06:06:57;38.25;35.00;24.75
56495;PMS5003;42804;55.762;38.084;2023-04-24T06:09:26;40.00;37.20;25.00
56495;PMS5003;42804;55.762;38.084;2023-04-24T06:11:55;25.75;24.00;19.75
56495;PMS5003;42804;55.762;38.084;2023-04-24T06:14:31;34.25;31.25;23.25
56495;PMS5003;42804;55.762;38.084;2023-04-24T06:17:17;33.75;33.00;22.00
56495;PMS5003;42804;55.762;38.084;2023-04-24T06:19:45;37.75;33.00;23.00
56495;PMS5003;42804;55.762;38.084;2023-04-24T06:22:14;33.75;31.00;22.25
56495;PMS5003;42804;55.762;38.084;2023-04-24T06:24:42;33.25;32.00;22.00
56495;PMS5003;42804;55.762;38.084;2023-04-24T06:27:11;32.25;29.25;21.50
56495;PMS5003;42804;55.762;38.084;2023-04-24T06:29:42;32.25;28.00;21.00
56495;PMS5003;42804;55.762;38.084;2023-04-24T06:32:11;33.25;30.75;22.00
56495;PMS5003;42804;55.762;38.084;2023-04-24T06:34:40;29.50;29.00;22.00
56495;PMS5003;42804;55.762;38.084;2023-04-24T06:37:18;34.75;32.25;21.25
56495;PMS5003;42804;55.762;38.084;2023-04-24T06:39:47;32.00;30.75;22.00
56495;PMS5003;42804;55.762;38.084;2023-04-24T06:42:15;31.25;29.75;21.25
56495;PMS5003;42804;55.762;38.084;2023-04-24T06:44:45;25.00;22.75;18.75
56495;PMS5003;42804;55.762;38.084;2023-04-24T06:49:59;26.75;23.00;18.50
56495;PMS5003;42804;55.762;38.084;2023-04-24T06:52:29;24.75;22.75;15.25
56495;PMS5003;42804;55.762;38.084;2023-04-24T06:55:02;29.00;29.00;19.50
56495;PMS5003;42804;55.762;38.084;2023-04-24T06:57:31;26.25;24.50;17.75
56495;PMS5003;42804;55.762;38.084;2023-04-24T07:00:01;31.00;26.00;18.00
56495;PMS5003;42804;55.762;38.084;2023-04-24T07:02:31;21.00;20.00;16.75
56495;PMS5003;42804;55.762;38.084;2023-04-24T07:04:59;24.00;23.00;17.00
56495;PMS5003;42804;55.762;38.084;2023-04-24T07:07:29;23.00;22.50;16.00
56495;PMS5003;42804;55.762;38.084;2023-04-24T07:09:58;18.25;17.25;13.25
56495;PMS5003;42804;55.762;38.084;2023-04-24T07:12:26;23.00;22.75;17.00
56495;PMS5003;42804;55.762;38.084;2023-04-24T07:14:54;23.00;20.75;16.50
56495;PMS5003;42804;55.762;38.084;2023-04-24T07:17:24;20.25;20.00;15.00
56495;PMS5003;42804;55.762;38.084;2023-04-24T07:19:53;11.00;9.00;3.25
56495;PMS5003;42804;55.762;38.084;2023-04-24T07:22:21;19.25;16.50;13.00
56495;PMS5003;42804;55.762;38.084;2023-04-24T07:24:50;20.75;20.25;16.25
56495;PMS5003;42804;55.762;38.084;2023-04-24T07:27:18;16.00;15.75;10.00
56495;PMS5003;42804;55.762;38.084;2023-04-24T07:29:46;15.75;15.25;11.00
56495;PMS5003;42804;55.762;38.084;2023-04-24T07:32:14;18.00;17.00;12.50
56495;PMS5003;42804;55.762;38.084;2023-04-24T07:34:44;19.50;17.25;13.00
56495;PMS5003;42804;55.762;38.084;2023-04-24T07:37:12;17.00;16.00;11.25
56495;PMS5003;42804;55.762;38.084;2023-04-24T07:39:41;20.50;17.25;13.75
56495;PMS5003;42804;55.762;38.084;2023-04-24T07:42:09;17.00;16.50;13.00
56495;PMS5003;42804;55.762;38.084;2023-04-24T07:44:37;18.25;16.50;12.75
56495;PMS5003;42804;55.762;38.084;2023-04-24T07:47:06;16.50;16.00;13.00
56495;PMS5003;42804;55.762;38.084;2023-04-24T07:49:34;18.00;18.00;13.25
56495;PMS5003;42804;55.762;38.084;2023-04-24T07:52:03;16.00;15.25;9.50
56495;PMS5003;42804;55.762;38.084;2023-04-24T07:54:31;21.00;19.75;14.00
56495;PMS5003;42804;55.762;38.084;2023-04-24T07:57:00;16.75;15.50;12.25
56495;PMS5003;42804;55.762;38.084;2023-04-24T07:59:28;15.50;14.50;10.50
56495;PMS5003;42804;55.762;38.084;2023-04-24T08:01:56;17.00;17.00;12.50
56495;PMS5003;42804;55.762;38.084;2023-04-24T08:04:24;17.75;16.50;14.50
56495;PMS5003;42804;55.762;38.084;2023-04-24T08:06:53;17.00;16.00;12.00
56495;PMS5003;42804;55.762;38.084;2023-04-24T08:09:23;15.50;14.75;11.25
56495;PMS5003;42804;55.762;38.084;2023-04-24T08:11:53;16.00;15.00;11.00
56495;PMS5003;42804;55.762;38.084;2023-04-24T08:14:21;17.75;15.75;12.50
56495;PMS5003;42804;55.762;38.084;2023-04-24T08:16:49;16.25;15.75;13.00
56495;PMS5003;42804;55.762;38.084;2023-04-24T08:19:17;15.00;14.50;11.75
56495;PMS5003;42804;55.762;38.084;2023-04-24T08:21:46;13.75;13.50;10.50
56495;PMS5003;42804;55.762;38.084;2023-04-24T08:24:14;22.75;21.25;14.00
56495;PMS5003;42804;55.762;38.084;2023-04-24T08:26:44;11.50;11.50;8.25
56495;PMS5003;42804;55.762;38.084;2023-04-24T08:29:31;14.00;13.25;12.25
56495;PMS5003;42804;55.762;38.084;2023-04-24T08:31:59;16.25;15.50;12.50
56495;PMS5003;42804;55.762;38.084;2023-04-24T08:37:15;13.25;13.25;11.00
56495;PMS5003;42804;55.762;38.084;2023-04-24T08:39:43;17.00;16.00;12.00
56495;PMS5003;42804;55.762;38.084;2023-04-24T08:42:13;16.50;15.50;12.50
56495;PMS5003;42804;55.762;38.084;2023-04-24T08:44:42;18.00;16.75;13.50
56495;PMS5003;42804;55.762;38.084;2023-04-24T08:47:11;15.00;15.00;11.75
56495;PMS5003;42804;55.762;38.084;2023-04-24T08:49:41;18.00;17.50;13.25
56495;PMS5003;42804;55.762;38.084;2023-04-24T08:52:10;13.25;13.25;10.75
56495;PMS5003;42804;55.762;38.084;2023-04-24T08:54:40;16.50;16.50;13.00
56495;PMS5003;42804;55.762;38.084;2023-04-24T08:57:10;12.00;10.00;8.25
56495;PMS5003;42804;55.762;38.084;2023-04-24T08:59:39;18.00;17.50;12.75
56495;PMS5003;42804;55.762;38.084;2023-04-24T09:02:10;18.00;17.25;12.50
56495;PMS5003;42804;55.762;38.084;2023-04-24T09:04:38;17.25;16.50;10.75
56495;PMS5003;42804;55.762;38.084;2023-04-24T09:07:08;19.75;17.50;12.50
56495;PMS5003;42804;55.762;38.084;2023-04-24T09:09:38;17.00;16.75;11.50
56495;PMS5003;42804;55.762;38.084;2023-04-24T09:12:07;15.00;15.00;10.50
56495;PMS5003;42804;55.762;38.084;2023-04-24T09:14:36;16.50;16.50;12.25
56495;PMS5003;42804;55.762;38.084;2023-04-24T09:17:10;15.75;14.75;11.50
56495;PMS5003;42804;55.762;38.084;2023-04-24T09:19:39;15.00;14.25;10.75
56495;PMS5003;42804;55.762;38.084;2023-04-24T09:22:09;16.25;15.00;11.00
56495;PMS5003;42804;55.762;38.084;2023-04-24T09:24:38;17.75;17.25;13.75
56495;PMS5003;42804;55.762;38.084;2023-04-24T09:27:06;16.25;15.50;10.50
56495;PMS5003;42804;55.762;38.084;2023-04-24T09:29:36;19.50;18.00;13.00
56495;PMS5003;42804;55.762;38.084;2023-04-24T09:32:19;17.00;17.00;12.25
56495;PMS5003;42804;55.762;38.084;2023-04-24T09:34:48;17.25;17.25;13.25
56495;PMS5003;42804;55.762;38.084;2023-04-24T09:37:27;17.75;17.00;13.00
56495;PMS5003;42804;55.762;38.084;2023-04-24T09:40:07;17.00;16.00;12.50
56495;PMS5003;42804;55.762;38.084;2023-04-24T09:42:35;19.00;19.00;15.00
56495;PMS5003;42804;55.762;38.084;2023-04-24T09:45:04;16.00;15.50;11.00
56495;PMS5003;42804;55.762;38.084;2023-04-24T09:47:39;18.25;17.25;12.50
56495;PMS5003;42804;55.762;38.084;2023-04-24T09:50:11;18.25;16.75;12.75
56495;PMS5003;42804;55.762;38.084;2023-04-24T09:52:41;19.25;19.00;13.25
56495;PMS5003;42804;55.762;38.084;2023-04-24T09:55:10;20.75;19.25;15.25
56495;PMS5003;42804;55.762;38.084;2023-04-24T09:57:46;19.25;16.75;13.00
56495;PMS5003;42804;55.762;38.084;2023-04-24T10:00:17;16.75;16.00;11.50
56495;PMS5003;42804;55.762;38.084;2023-04-24T10:02:50;17.00;16.00;11.50
56495;PMS5003;42804;55.762;38.084;2023-04-24T10:05:22;13.75;11.00;7.75
56495;PMS5003;42804;55.762;38.084;2023-04-24T10:07:51;16.50;16.50;13.00
56495;PMS5003;42804;55.762;38.084;2023-04-24T10:10:19;15.25;14.75;9.00
56495;PMS5003;42804;55.762;38.084;2023-04-24T10:12:47;20.00;18.50;14.25
56495;PMS5003;42804;55.762;38.084;2023-04-24T10:15:17;16.00;14.00;10.75
56495;PMS5003;42804;55.762;38.084;2023-04-24T10:17:48;16.50;16.25;12.00
56495;PMS5003;42804;55.762;38.084;2023-04-24T10:20:22;20.75;19.50;15.00
56495;PMS5003;42804;55.762;38.084;2023-04-24T10:22:51;19.00;17.75;13.50
56495;PMS5003;42804;55.762;38.084;2023-04-24T10:25:20;19.25;19.00;14.00
56495;PMS5003;42804;55.762;38.084;2023-04-24T10:27:49;20.00;19.00;14.50
56495;PMS5003;42804;55.762;38.084;2023-04-24T10:30:18;18.25;18.25;13.25
56495;PMS5003;42804;55.762;38.084;2023-04-24T10:32:46;12.50;12.50;11.50
56495;PMS5003;42804;55.762;38.084;2023-04-24T10:35:15;20.75;19.50;13.75
56495;PMS5003;42804;55.762;38.084;2023-04-24T10:37:45;17.00;16.00;12.00
56495;PMS5003;42804;55.762;38.084;2023-04-24T10:40:17;15.00;14.75;11.00
56495;PMS5003;42804;55.762;38.084;2023-04-24T10:42:51;15.50;12.50;11.50
56495;PMS5003;42804;55.762;38.084;2023-04-24T10:45:23;16.75;15.75;10.25
56495;PMS5003;42804;55.762;38.084;2023-04-24T10:47:52;16.25;15.75;12.25
56495;PMS5003;42804;55.762;38.084;2023-04-24T10:50:20;19.75;17.50;14.00
56495;PMS5003;42804;55.762;38.084;2023-04-24T10:52:50;18.50;17.50;14.00
56495;PMS5003;42804;55.762;38.084;2023-04-24T10:58:06;15.50;15.50;11.00
56495;PMS5003;42804;55.762;38.084;2023-04-24T11:00:36;15.25;14.25;10.00
56495;PMS5003;42804;55.762;38.084;2023-04-24T11:03:04;10.75;10.75;9.25
56495;PMS5003;42804;55.762;38.084;2023-04-24T11:08:24;17.00;17.00;11.25
56495;PMS5003;42804;55.762;38.084;2023-04-24T11:10:57;13.75;12.75;9.75
56495;PMS5003;42804;55.762;38.084;2023-04-24T11:13:27;15.00;14.25;9.75
56495;PMS5003;42804;55.762;38.084;2023-04-24T11:16:14;14.00;12.75;9.75
56495;PMS5003;42804;55.762;38.084;2023-04-24T11:18:43;14.25;14.25;10.25
56495;PMS5003;42804;55.762;38.084;2023-04-24T11:21:17;15.00;13.25;9.50
56495;PMS5003;42804;55.762;38.084;2023-04-24T11:23:47;12.75;12.75;10.00
56495;PMS5003;42804;55.762;38.084;2023-04-24T11:26:19;13.75;13.25;10.00
56495;PMS5003;42804;55.762;38.084;2023-04-24T11:28:50;13.00;12.25;9.00
56495;PMS5003;42804;55.762;38.084;2023-04-24T11:31:34;11.50;11.25;9.25
56495;PMS5003;42804;55.762;38.084;2023-04-24T11:34:08;15.50;12.00;9.25
56495;PMS5003;42804;55.762;38.084;2023-04-24T11:36:37;12.25;12.25;9.00
56495;PMS5003;42804;55.762;38.084;2023-04-24T11:39:07;13.50;13.00;10.00
56495;PMS5003;42804;55.762;38.084;2023-04-24T11:41:37;12.50;12.50;10.50
56495;PMS5003;42804;55.762;38.084;2023-04-24T11:44:06;14.00;13.00;9.25
56495;PMS5003;42804;55.762;38.084;2023-04-24T11:46:35;13.50;13.00;10.00
56495;PMS5003;42804;55.762;38.084;2023-04-24T11:49:04;17.00;16.00;11.75
56495;PMS5003;42804;55.762;38.084;2023-04-24T11:51:33;12.50;11.25;8.00
56495;PMS5003;42804;55.762;38.084;2023-04-24T11:54:18;8.25;7.75;4.50
56495;PMS5003;42804;55.762;38.084;2023-04-24T11:56:46;15.00;13.75;10.00
56495;PMS5003;42804;55.762;38.084;2023-04-24T11:59:15;15.50;15.50;11.25
56495;PMS5003;42804;55.762;38.084;2023-04-24T12:01:43;14.75;14.50;11.00
56495;PMS5003;42804;55.762;38.084;2023-04-24T12:04:12;16.00;15.00;10.00
56495;PMS5003;42804;55.762;38.084;2023-04-24T12:09:26;14.00;13.25;10.25
56495;PMS5003;42804;55.762;38.084;2023-04-24T12:11:56;15.25;12.75;9.75
56495;PMS5003;42804;55.762;38.084;2023-04-24T12:14:24;9.50;9.25;8.00
56495;PMS5003;42804;55.762;38.084;2023-04-24T12:16:52;13.00;12.00;9.00
56495;PMS5003;42804;55.762;38.084;2023-04-24T12:19:21;12.50;12.25;9.00
56495;PMS5003;42804;55.762;38.084;2023-04-24T12:21:59;11.75;11.25;9.75
56495;PMS5003;42804;55.762;38.084;2023-04-24T12:24:28;12.25;11.75;9.00
56495;PMS5003;42804;55.762;38.084;2023-04-24T12:26:57;12.50;11.00;9.00
56495;PMS5003;42804;55.762;38.084;2023-04-24T12:29:25;12.75;11.25;8.00
56495;PMS5003;42804;55.762;38.084;2023-04-24T12:31:53;13.25;12.75;9.00
56495;PMS5003;42804;55.762;38.084;2023-04-24T12:34:22;12.50;11.50;8.00
56495;PMS5003;42804;55.762;38.084;2023-04-24T12:36:51;13.50;12.75;10.00
56495;PMS5003;42804;55.762;38.084;2023-04-24T12:39:20;14.00;14.00;9.25
56495;PMS5003;42804;55.762;38.084;2023-04-24T12:41:53;13.00;12.50;9.00
56495;PMS5003;42804;55.762;38.084;2023-04-24T12:44:28;15.00;13.50;9.25
56495;PMS5003;42804;55.762;38.084;2023-04-24T12:46:57;13.00;13.00;8.00
56495;PMS5003;42804;55.762;38.084;2023-04-24T12:53:12;11.50;11.00;8.75
56495;PMS5003;42804;55.762;38.084;2023-04-24T12:55:41;14.00;13.00;10.67
56495;PMS5003;42804;55.762;38.084;2023-04-24T12:58:10;14.00;13.00;9.75
56495;PMS5003;42804;55.762;38.084;2023-04-24T13:00:38;12.25;12.25;8.00
56495;PMS5003;42804;55.762;38.084;2023-04-24T13:03:10;15.75;15.00;12.00
56495;PMS5003;42804;55.762;38.084;2023-04-24T13:05:38;15.00;14.50;10.50
56495;PMS5003;42804;55.762;38.084;2023-04-24T13:08:06;10.75;10.75;7.75
56495;PMS5003;42804;55.762;38.084;2023-04-24T13:10:34;12.00;11.50;8.50
56495;PMS5003;42804;55.762;38.084;2023-04-24T13:17:17;10.75;10.00;7.50
56495;PMS5003;42804;55.762;38.084;2023-04-24T13:19:45;11.50;11.25;6.00
56495;PMS5003;42804;55.762;38.084;2023-04-24T13:22:14;16.50;16.50;11.25
56495;PMS5003;42804;55.762;38.084;2023-04-24T13:24:42;13.75;13.75;9.75
56495;PMS5003;42804;55.762;38.084;2023-04-24T13:27:10;11.75;11.50;8.75
56495;PMS5003;42804;55.762;38.084;2023-04-24T13:29:38;11.75;11.25;8.75
56495;PMS5003;42804;55.762;38.084;2023-04-24T13:32:07;13.00;12.75;9.50
56495;PMS5003;42804;55.762;38.084;2023-04-24T13:34:37;13.00;12.00;8.25
56495;PMS5003;42804;55.762;38.084;2023-04-24T13:37:05;13.00;13.00;9.00
56495;PMS5003;42804;55.762;38.084;2023-04-24T13:39:34;12.25;12.25;8.75
56495;PMS5003;42804;55.762;38.084;2023-04-24T13:42:03;13.75;12.75;8.75
56495;PMS5003;42804;55.762;38.084;2023-04-24T13:44:31;13.25;13.25;10.00
56495;PMS5003;42804;55.762;38.084;2023-04-24T13:46:59;11.25;11.25;9.25
56495;PMS5003;42804;55.762;38.084;2023-04-24T13:49:28;12.50;12.25;8.75
56495;PMS5003;42804;55.762;38.084;2023-04-24T13:51:58;13.50;12.75;9.50
56495;PMS5003;42804;55.762;38.084;2023-04-24T13:54:26;12.75;12.75;9.00
56495;PMS5003;42804;55.762;38.084;2023-04-24T13:56:55;12.00;10.00;8.00
56495;PMS5003;42804;55.762;38.084;2023-04-24T13:59:24;11.00;11.00;9.00
56495;PMS5003;42804;55.762;38.084;2023-04-24T14:01:52;14.75;13.25;9.25
56495;PMS5003;42804;55.762;38.084;2023-04-24T14:04:20;14.25;12.75;9.00
56495;PMS5003;42804;55.762;38.084;2023-04-24T14:06:49;12.75;11.25;7.75
56495;PMS5003;42804;55.762;38.084;2023-04-24T14:09:19;11.00;11.00;8.25
56495;PMS5003;42804;55.762;38.084;2023-04-24T14:11:47;13.50;11.50;8.25
56495;PMS5003;42804;55.762;38.084;2023-04-24T14:14:15;14.00;12.75;9.00